Relevés horaires St-Hubert (Belgique)


Relevés horaires à St-Hubert - Lundi 15 Juin 2020
Heure UTC1 Température [°C] Vent [km/h] Hum. [%] Pres.4 [hPa] Visi. [Km] Nébu. [octa] Préc.5 [mm] Cond.
2m. Res. Ros. Dir.2 Vit. Moy. Raf.3
23:00 12.5 12.5 9.0 SSO 1.9 3.7 5.6 79 1018.6(0.1/3h) 45 0/8 -- --
22:00 12.6 12.6 9.4 SSO 3.7 3.7 5.6 81 1018.6(0.3/3h) 45 0/8 -- --
21:00 13.0 13.0 9.6 SSO 1.9 5.6 9.3 80 1018.7(0.6/3h) 35 0/8 -- --
20:00 14.7 14.7 10.4 SSO 1.9 3.7 7.4 75 1017.9(0.4/3h) 45 0/8 -- --
19:00 16.9 16.9 10.4 SO 3.7 5.6 9.3 66 1017.2(0.3/3h) 45 0/8 -- --
18:00 18.1 18.1 10.5 SO 5.6 7.4 14.8 61 1016.8(-0.1/3h) 40 0/8 0/12h
--
17:00 19.1 19.1 11.4 SO 5.6 7.4 14.8 61 1016.5(-0.2/3h) 35 5/8 -- --
16:00 19.1 19.1 10.5 SO 5.6 7.4 13.0 57 1016.3(-0.5/3h) 35 5/8 -- --
15:00 19.7 19.7 11.7 OSO 7.4 7.4 13.0 60 1016.3(-0.6/3h) 40 6/8 -- --
14:00 18.8 18.8 10.1 SO 5.6 7.4 13.0 57 1016.7(-0.6/3h) 35 0/8 -- --
13:00 18.8 18.8 10.3 OSO 5.6 5.6 11.1 58 1016.9(-0.3/3h) 40 8/8 -- --
12:00 18.8 18.8 10.8 SO 7.4 7.4 14.8 60 1017.2(0.1/3h) 30 8/8 0/6h
--
11:00 17.7 17.7 11.3 OSO 7.4 7.4 14.8 66 1017.5(0.3/3h) 40 8/8 -- --
10:00 16.8 16.8 10.9 SO 5.6 5.6 11.1 68 1017.7(0.3/3h) 45 7/8 -- --
09:00 16.6 16.6 10.6 OSO 3.7 5.6 9.3 68 1017.8(0.6/3h) 35 8/8 -- --
08:00 16.4 16.4 11.6 SO 3.7 3.7 7.4 73 1017.5(0.4/3h) 35 0/8 -- --
07:00 15.2 15.2 11.6 OSO 1.9 3.7 5.6 79 1017.7(0.5/3h) 35 0/8 -- --
06:00 13.9 13.9 10.6 SO 1.9 3.7 3.7 80 1017.8(0.5/3h) 35 0/8 0/12h
--
05:00 12.6 12.6 10.2 OSO 1.9 1.9 3.7 85 1018(0.4/3h) 40 2/8 -- --
04:00 11.0 11.0 8.7 SO 1.9 3.7 3.7 86 1018.2(-0.1/3h) 40 0/8 -- --
03:00 11.4 11.4 9.6 OSO 1.9 1.9 3.7 89 1017.9(-0.3/3h) 40 5/8 -- --
02:00 11.3 11.3 9.2 SO 1.9 1.9 3.7 87 1018(-0.4/3h) 45 0/8 -- --
01:00 11.4 11.4 9.4 OSO 1.9 1.9 3.7 87 1018.2(0.0/3h) 45 0/8 -- --
00:00 12.4 12.4 10.1 SO 3.7 3.7 5.6 86 1018(0.2/3h) 45 0/8 0/6h
0/24h
Ciel clair

1 Coordinated Universal Time. Actuellement il est 15:00 locale et 13:00 UTC.

2 Le vent souffle depuis la direction indiquée vers la direction oposée.

3 Les rafales max. sont disponible 40 min après l'heure du relevé.

4 Pour les stations d'altitude (plus de 600m) le géopotentiel du niveau le plus proche de la pression obligatoire est indiqué.

5 Les stations disposant d'un diffuseur peuvent indiquer "trace". Cela signifie que des précipitations ont touchés le sol mais que la quantité est inférieure à 0.1 mm.

Récapitulatif de la journée
Température [°C] Vent [km/h] Ensoleillement4 [h] Precipitations totale5 [mm] Pression [Hpa]
Min1 Max.2 Moy.3 Max. Min Max.
10.7 20.2 4.9 14.8 0 h 0 min 0 1016.3 1018.7

1 Température minimale relevée entre 18:00 UTC la veille et 18:00 UTC le jour donné.

2 Température maximale relevée entre 06:00 UTC le jour donné et 06:00 UTC le lendemain.

3 Vent moyen de la journée basé sur les relevés horaires.

4 Ensoleillement en heures relevé entre 06:00 UTC la veille et 06:00 UTC le jour donné.

5 Précipitations totales tombées entre 06:00 UTC la jour donné et 06:00 UTC le lendemain.

Graphiques horaires